Aviation Digital Data Service (ADDS)

Output produced by METARs form (1003 UTC 19 January 2019)
found at http://www.aviationweather.gov/metar/data/
 
OPLA 190925Z 26005KT 3000 HZ SCT100 SCT200 20/03 Q1017 RMK QFE991 RMK A30.02
TAF OPLA 190345Z 1906/2012 35003KT 4000 FU SCT100 TX20/1910Z TN05/2001Z 
     FM191300 03003KT 3000 FU FEW040 SCT100 
     TEMPO 2001/2004 0800 FG
       
TAF OPBW 190950Z 1912/2006 05005KT 2000 FU SCT040 SCT120 TN07/2001Z 
     PROB30 
     TEMPO 1920/1924 36020KT 1500 -TSRA FEW030CB SCT040 BKN100 
     TEMPO 2001/2005 00000KT 0600 FU FEW120
       
OPRN 190930Z 23004KT 5000 HZ NSC 20/05 Q1018 NOSIG RMK A3007
TAF OPDG 190950Z 1912/2006 36005KT 4000 FU SCT040 SCT120 TN05/2001Z 
     PROB30 
     TEMPO 1920/1924 36020KT 2000 -TSRA FEW030CB SCT040 BKN100 
     TEMPO 2001/2005 00000KT 1500 BR FEW120
       
TAF OPGD 190930Z 1912/2012 23010KT 4000 FU SCT030 SCT100 
     TEMPO 2000/2006 04015G25KT 1500 -TSRA FEW025CB SCT030 BKN090 
     FM200800 24008G18KT 5000 HZ FEW030 SCT100
       
OPKC 190925Z 00000KT 5000 HZ NSC 27/09 Q1015 NOSIG
TAF OPKC 190930Z 1912/1921 24008KT 6000 NSC
       
OPMT 191000Z 05004KT 4000 HZ SCT120 20/05 Q1016 NOSIG
TAF OPMT 190950Z 1912/2006 05005KT 4000 FU SCT040 SCT120 TN07/2001Z 
     PROB30 
     TEMPO 1920/1924 36020KT 2000 -TSRA FEW030CB SCT040 BKN100 
     TEMPO 2001/2005 00000KT 1500 BR FEW120
       
OPNH 190900Z 31506KT 2000M FU FEW100 SCT200 21/08 Q1016 BECMG 2500 FU
TAF OPNH 190930Z 1912/1921 31007KT 3000 HZ NSC
       
OPPS 191000Z 36010KT 6000 HZ FEW100 SCT180 19/06 Q1019
TAF OPPS 190915Z 1912/2018 21010KT 4000 HZ FEW040 BKN100 1918/1924 RA SCT040
BKN100 
     BECMG FM 2006 21010G20KT 3000 RA FEW030TCU SCT040 BKN100 
     TEMPO 2014/2018 3000 TSRA FEW030TCU/CB SCT100
       
TAF OPRK 190950Z 1912/2006 05005KT 3000 FU SCT040 SCT120 TN07/2001Z 
     PROB30 
     TEMPO 2001/2005 00000KT 1000 BR FEW120
       
OPSK 191000Z 05010KT 4000 HZ SCT100 21/10 Q1015 NOSIG
TAF OPSK 190930Z 1912/2012 04007KT 3000 FU NSC 
     FM192100 VRB03KT 1500 BR FEW030 SCT100 
     TEMPO 2000/2004 00000KT 0800 FG VV/// 
     FM200600 03010KT 4000 HZ SCT030 SCT100